sensor_id;sensor_type;location;lat;lon;timestamp;temperature;humidity
14170;DHT22;63889;50.596;8.690;2022-12-07T00:00:54;4.90;99.90
14170;DHT22;63889;50.596;8.690;2022-12-07T00:03:20;4.90;99.90
14170;DHT22;63889;50.596;8.690;2022-12-07T00:05:45;4.90;99.90
14170;DHT22;63889;50.596;8.690;2022-12-07T00:08:11;4.90;99.90
14170;DHT22;63889;50.596;8.690;2022-12-07T00:10:36;4.90;99.90
14170;DHT22;63889;50.596;8.690;2022-12-07T00:13:02;4.90;99.90
14170;DHT22;63889;50.596;8.690;2022-12-07T00:15:28;4.90;99.90
14170;DHT22;63889;50.596;8.690;2022-12-07T00:17:53;4.90;99.90
14170;DHT22;63889;50.596;8.690;2022-12-07T00:20:19;4.60;99.90
14170;DHT22;63889;50.596;8.690;2022-12-07T00:22:44;4.70;99.90
14170;DHT22;63889;50.596;8.690;2022-12-07T00:25:10;4.90;99.90
14170;DHT22;63889;50.596;8.690;2022-12-07T00:27:35;4.90;99.90
14170;DHT22;63889;50.596;8.690;2022-12-07T00:30:01;4.90;99.90
14170;DHT22;63889;50.596;8.690;2022-12-07T00:32:26;4.80;99.90
14170;DHT22;63889;50.596;8.690;2022-12-07T00:34:52;4.90;99.90
14170;DHT22;63889;50.596;8.690;2022-12-07T00:37:17;4.90;99.90
14170;DHT22;63889;50.596;8.690;2022-12-07T00:39:43;5.00;99.90
14170;DHT22;63889;50.596;8.690;2022-12-07T00:42:08;5.10;99.90
14170;DHT22;63889;50.596;8.690;2022-12-07T00:44:34;5.10;99.90
14170;DHT22;63889;50.596;8.690;2022-12-07T00:46:59;5.10;99.90
14170;DHT22;63889;50.596;8.690;2022-12-07T00:49:25;5.10;99.90
14170;DHT22;63889;50.596;8.690;2022-12-07T00:51:50;5.00;99.90
14170;DHT22;63889;50.596;8.690;2022-12-07T00:54:16;5.00;99.90
14170;DHT22;63889;50.596;8.690;2022-12-07T00:56:41;4.80;99.90
14170;DHT22;63889;50.596;8.690;2022-12-07T00:59:10;4.70;99.90
14170;DHT22;63889;50.596;8.690;2022-12-07T01:01:37;4.50;99.90
14170;DHT22;63889;50.596;8.690;2022-12-07T01:04:03;4.50;99.90
14170;DHT22;63889;50.596;8.690;2022-12-07T01:06:29;4.50;99.90
14170;DHT22;63889;50.596;8.690;2022-12-07T01:08:55;4.50;99.90
14170;DHT22;63889;50.596;8.690;2022-12-07T01:11:23;4.60;99.90
14170;DHT22;63889;50.596;8.690;2022-12-07T01:13:53;4.80;99.90
14170;DHT22;63889;50.596;8.690;2022-12-07T01:16:22;5.00;99.90
14170;DHT22;63889;50.596;8.690;2022-12-07T01:18:49;5.10;99.90
14170;DHT22;63889;50.596;8.690;2022-12-07T01:21:21;5.20;99.90
14170;DHT22;63889;50.596;8.690;2022-12-07T01:23:47;5.20;99.90
14170;DHT22;63889;50.596;8.690;2022-12-07T01:26:15;5.20;99.90
14170;DHT22;63889;50.596;8.690;2022-12-07T01:28:41;5.10;99.90
14170;DHT22;63889;50.596;8.690;2022-12-07T01:31:09;5.10;99.90
14170;DHT22;63889;50.596;8.690;2022-12-07T01:33:38;5.00;99.90
14170;DHT22;63889;50.596;8.690;2022-12-07T01:36:25;5.10;99.90
14170;DHT22;63889;50.596;8.690;2022-12-07T01:38:54;5.20;99.90
14170;DHT22;63889;50.596;8.690;2022-12-07T01:41:22;5.30;99.90
14170;DHT22;63889;50.596;8.690;2022-12-07T01:46:35;5.30;99.90
14170;DHT22;63889;50.596;8.690;2022-12-07T01:49:01;5.20;99.90
14170;DHT22;63889;50.596;8.690;2022-12-07T01:51:28;5.20;99.90
14170;DHT22;63889;50.596;8.690;2022-12-07T01:53:54;5.20;99.90
14170;DHT22;63889;50.596;8.690;2022-12-07T01:56:22;5.20;99.90
14170;DHT22;63889;50.596;8.690;2022-12-07T01:58:49;5.20;99.90
14170;DHT22;63889;50.596;8.690;2022-12-07T02:01:16;5.20;99.90
14170;DHT22;63889;50.596;8.690;2022-12-07T02:03:43;5.20;99.90
14170;DHT22;63889;50.596;8.690;2022-12-07T02:06:12;5.20;99.90
14170;DHT22;63889;50.596;8.690;2022-12-07T02:08:40;5.20;99.90
14170;DHT22;63889;50.596;8.690;2022-12-07T02:11:07;5.20;99.90
14170;DHT22;63889;50.596;8.690;2022-12-07T02:13:35;5.30;99.90
14170;DHT22;63889;50.596;8.690;2022-12-07T02:18:57;5.20;99.90
14170;DHT22;63889;50.596;8.690;2022-12-07T02:30:00;5.10;99.90
14170;DHT22;63889;50.596;8.690;2022-12-07T02:32:54;5.10;99.90
14170;DHT22;63889;50.596;8.690;2022-12-07T02:35:25;4.90;99.90
14170;DHT22;63889;50.596;8.690;2022-12-07T02:38:12;5.00;99.90
14170;DHT22;63889;50.596;8.690;2022-12-07T02:40:40;5.10;99.90
14170;DHT22;63889;50.596;8.690;2022-12-07T02:43:12;5.10;99.90
14170;DHT22;63889;50.596;8.690;2022-12-07T02:45:40;5.00;99.90
14170;DHT22;63889;50.596;8.690;2022-12-07T02:48:07;4.90;99.90
14170;DHT22;63889;50.596;8.690;2022-12-07T02:50:34;4.90;99.90
14170;DHT22;63889;50.596;8.690;2022-12-07T02:52:59;4.90;99.90
14170;DHT22;63889;50.596;8.690;2022-12-07T02:55:34;5.00;99.90
14170;DHT22;63889;50.596;8.690;2022-12-07T02:58:20;5.10;99.90
14170;DHT22;63889;50.596;8.690;2022-12-07T03:01:36;5.10;99.90
14170;DHT22;63889;50.596;8.690;2022-12-07T03:06:56;5.10;99.90
14170;DHT22;63889;50.596;8.690;2022-12-07T03:12:42;5.30;99.90
14170;DHT22;63889;50.596;8.690;2022-12-07T03:15:22;5.30;99.90
14170;DHT22;63889;50.596;8.690;2022-12-07T03:17:51;5.30;99.90
14170;DHT22;63889;50.596;8.690;2022-12-07T03:20:20;5.30;99.90
14170;DHT22;63889;50.596;8.690;2022-12-07T03:22:47;5.30;99.90
14170;DHT22;63889;50.596;8.690;2022-12-07T03:25:15;5.30;99.90
14170;DHT22;63889;50.596;8.690;2022-12-07T03:27:58;5.30;99.90
14170;DHT22;63889;50.596;8.690;2022-12-07T03:30:39;5.30;99.90
14170;DHT22;63889;50.596;8.690;2022-12-07T03:33:18;5.30;99.90
14170;DHT22;63889;50.596;8.690;2022-12-07T03:38:44;5.20;99.90
14170;DHT22;63889;50.596;8.690;2022-12-07T03:41:25;5.10;99.90
14170;DHT22;63889;50.596;8.690;2022-12-07T03:43:53;5.10;99.90
14170;DHT22;63889;50.596;8.690;2022-12-07T03:51:52;4.90;99.90
14170;DHT22;63889;50.596;8.690;2022-12-07T03:56:49;4.80;99.90
14170;DHT22;63889;50.596;8.690;2022-12-07T03:59:16;4.80;99.90
14170;DHT22;63889;50.596;8.690;2022-12-07T04:01:44;4.80;99.90
14170;DHT22;63889;50.596;8.690;2022-12-07T04:04:09;4.90;99.90
14170;DHT22;63889;50.596;8.690;2022-12-07T04:06:35;4.90;99.90
14170;DHT22;63889;50.596;8.690;2022-12-07T04:09:01;4.80;99.90
14170;DHT22;63889;50.596;8.690;2022-12-07T04:11:26;4.60;99.90
14170;DHT22;63889;50.596;8.690;2022-12-07T04:13:52;4.70;99.90
14170;DHT22;63889;50.596;8.690;2022-12-07T04:16:36;4.70;99.90
14170;DHT22;63889;50.596;8.690;2022-12-07T04:19:01;4.80;99.90
14170;DHT22;63889;50.596;8.690;2022-12-07T04:21:27;4.80;99.90
14170;DHT22;63889;50.596;8.690;2022-12-07T04:23:52;4.80;99.90
14170;DHT22;63889;50.596;8.690;2022-12-07T04:26:18;4.90;99.90
14170;DHT22;63889;50.596;8.690;2022-12-07T04:28:43;4.90;99.90
14170;DHT22;63889;50.596;8.690;2022-12-07T04:31:09;4.90;99.90
14170;DHT22;63889;50.596;8.690;2022-12-07T04:33:35;5.00;99.90
14170;DHT22;63889;50.596;8.690;2022-12-07T04:36:01;5.00;99.90
14170;DHT22;63889;50.596;8.690;2022-12-07T04:38:27;5.10;99.90
14170;DHT22;63889;50.596;8.690;2022-12-07T04:40:52;5.00;99.90
14170;DHT22;63889;50.596;8.690;2022-12-07T04:43:18;5.10;99.90
14170;DHT22;63889;50.596;8.690;2022-12-07T04:45:47;5.10;99.90
14170;DHT22;63889;50.596;8.690;2022-12-07T04:48:13;5.00;99.90
14170;DHT22;63889;50.596;8.690;2022-12-07T04:50:39;5.00;99.90
14170;DHT22;63889;50.596;8.690;2022-12-07T04:53:04;5.00;99.90
14170;DHT22;63889;50.596;8.690;2022-12-07T04:55:30;5.00;99.90
14170;DHT22;63889;50.596;8.690;2022-12-07T04:57:55;5.10;99.90
14170;DHT22;63889;50.596;8.690;2022-12-07T05:00:21;5.10;99.90
14170;DHT22;63889;50.596;8.690;2022-12-07T05:02:47;5.10;99.90
14170;DHT22;63889;50.596;8.690;2022-12-07T05:05:12;5.00;99.90
14170;DHT22;63889;50.596;8.690;2022-12-07T05:07:38;5.00;99.90
14170;DHT22;63889;50.596;8.690;2022-12-07T05:10:04;5.00;99.90
14170;DHT22;63889;50.596;8.690;2022-12-07T05:12:29;4.90;99.90
14170;DHT22;63889;50.596;8.690;2022-12-07T05:14:55;4.90;99.90
14170;DHT22;63889;50.596;8.690;2022-12-07T05:17:20;4.90;99.90
14170;DHT22;63889;50.596;8.690;2022-12-07T05:19:46;5.00;99.90
14170;DHT22;63889;50.596;8.690;2022-12-07T05:22:11;5.00;99.90
14170;DHT22;63889;50.596;8.690;2022-12-07T05:24:38;5.00;99.90
14170;DHT22;63889;50.596;8.690;2022-12-07T05:27:04;5.00;99.90
14170;DHT22;63889;50.596;8.690;2022-12-07T05:29:29;5.00;99.90
14170;DHT22;63889;50.596;8.690;2022-12-07T05:31:55;5.00;99.90
14170;DHT22;63889;50.596;8.690;2022-12-07T05:34:20;5.10;99.90
14170;DHT22;63889;50.596;8.690;2022-12-07T05:36:46;5.10;99.90
14170;DHT22;63889;50.596;8.690;2022-12-07T05:39:11;5.10;99.90
14170;DHT22;63889;50.596;8.690;2022-12-07T05:41:37;5.20;99.90
14170;DHT22;63889;50.596;8.690;2022-12-07T05:44:21;5.10;99.90
14170;DHT22;63889;50.596;8.690;2022-12-07T05:46:46;5.20;99.90
14170;DHT22;63889;50.596;8.690;2022-12-07T05:49:12;5.30;99.90
14170;DHT22;63889;50.596;8.690;2022-12-07T05:51:38;5.30;99.90
14170;DHT22;63889;50.596;8.690;2022-12-07T05:54:03;5.30;99.90
14170;DHT22;63889;50.596;8.690;2022-12-07T05:56:29;5.20;99.90
14170;DHT22;63889;50.596;8.690;2022-12-07T05:58:54;5.30;99.90
14170;DHT22;63889;50.596;8.690;2022-12-07T06:01:38;5.20;99.90
14170;DHT22;63889;50.596;8.690;2022-12-07T06:04:04;5.20;99.90
14170;DHT22;63889;50.596;8.690;2022-12-07T06:06:29;5.30;99.90
14170;DHT22;63889;50.596;8.690;2022-12-07T06:08:55;5.30;99.90
14170;DHT22;63889;50.596;8.690;2022-12-07T06:11:20;5.40;99.90
14170;DHT22;63889;50.596;8.690;2022-12-07T06:14:04;5.50;99.90
14170;DHT22;63889;50.596;8.690;2022-12-07T06:16:30;5.30;99.90
14170;DHT22;63889;50.596;8.690;2022-12-07T06:18:55;5.30;99.90
14170;DHT22;63889;50.596;8.690;2022-12-07T06:21:21;5.30;99.90
14170;DHT22;63889;50.596;8.690;2022-12-07T06:23:46;5.20;99.90
14170;DHT22;63889;50.596;8.690;2022-12-07T06:26:13;5.20;99.90
14170;DHT22;63889;50.596;8.690;2022-12-07T06:28:39;5.20;99.90
14170;DHT22;63889;50.596;8.690;2022-12-07T06:31:04;5.20;99.90
14170;DHT22;63889;50.596;8.690;2022-12-07T06:33:30;5.20;99.90
14170;DHT22;63889;50.596;8.690;2022-12-07T06:35:55;5.20;99.90
14170;DHT22;63889;50.596;8.690;2022-12-07T06:38:21;5.10;99.90
14170;DHT22;63889;50.596;8.690;2022-12-07T06:40:47;5.20;99.90
14170;DHT22;63889;50.596;8.690;2022-12-07T06:43:13;5.10;99.90
14170;DHT22;63889;50.596;8.690;2022-12-07T06:45:40;5.10;99.90
14170;DHT22;63889;50.596;8.690;2022-12-07T06:48:05;5.10;99.90
14170;DHT22;63889;50.596;8.690;2022-12-07T06:50:31;5.10;99.90
14170;DHT22;63889;50.596;8.690;2022-12-07T06:52:56;5.00;99.90
14170;DHT22;63889;50.596;8.690;2022-12-07T06:55:22;4.90;99.90
14170;DHT22;63889;50.596;8.690;2022-12-07T06:57:47;5.00;99.90
14170;DHT22;63889;50.596;8.690;2022-12-07T07:00:13;5.00;99.90
14170;DHT22;63889;50.596;8.690;2022-12-07T07:02:39;5.00;99.90
14170;DHT22;63889;50.596;8.690;2022-12-07T07:05:04;5.00;99.90
14170;DHT22;63889;50.596;8.690;2022-12-07T07:07:30;4.90;99.90
14170;DHT22;63889;50.596;8.690;2022-12-07T07:09:55;5.00;99.90
14170;DHT22;63889;50.596;8.690;2022-12-07T07:12:21;5.00;99.90
14170;DHT22;63889;50.596;8.690;2022-12-07T07:14:47;5.00;99.90
14170;DHT22;63889;50.596;8.690;2022-12-07T07:17:12;5.00;99.90
14170;DHT22;63889;50.596;8.690;2022-12-07T07:19:38;5.00;99.90
14170;DHT22;63889;50.596;8.690;2022-12-07T07:22:04;5.00;99.90
14170;DHT22;63889;50.596;8.690;2022-12-07T07:24:29;5.00;99.90
14170;DHT22;63889;50.596;8.690;2022-12-07T07:26:55;5.10;99.90
14170;DHT22;63889;50.596;8.690;2022-12-07T07:29:21;5.10;99.90
14170;DHT22;63889;50.596;8.690;2022-12-07T07:31:46;5.10;99.90
14170;DHT22;63889;50.596;8.690;2022-12-07T07:34:12;5.20;99.90
14170;DHT22;63889;50.596;8.690;2022-12-07T07:36:37;5.20;99.90
14170;DHT22;63889;50.596;8.690;2022-12-07T07:39:03;5.20;99.90
14170;DHT22;63889;50.596;8.690;2022-12-07T07:41:29;5.30;99.90
14170;DHT22;63889;50.596;8.690;2022-12-07T07:43:54;5.30;99.90
14170;DHT22;63889;50.596;8.690;2022-12-07T07:46:20;5.30;99.90
14170;DHT22;63889;50.596;8.690;2022-12-07T07:48:45;5.30;99.90
14170;DHT22;63889;50.596;8.690;2022-12-07T07:51:11;5.40;99.90
14170;DHT22;63889;50.596;8.690;2022-12-07T07:53:36;5.30;99.90
14170;DHT22;63889;50.596;8.690;2022-12-07T07:56:02;5.30;99.90
14170;DHT22;63889;50.596;8.690;2022-12-07T07:58:28;5.30;99.90
14170;DHT22;63889;50.596;8.690;2022-12-07T08:00:53;5.30;99.90
14170;DHT22;63889;50.596;8.690;2022-12-07T08:03:19;5.30;99.90
14170;DHT22;63889;50.596;8.690;2022-12-07T08:05:45;5.30;99.90
14170;DHT22;63889;50.596;8.690;2022-12-07T08:08:10;5.30;99.90
14170;DHT22;63889;50.596;8.690;2022-12-07T08:10:36;5.30;99.90
14170;DHT22;63889;50.596;8.690;2022-12-07T08:13:02;5.20;99.90
14170;DHT22;63889;50.596;8.690;2022-12-07T08:15:40;5.30;99.90
14170;DHT22;63889;50.596;8.690;2022-12-07T08:18:06;5.40;99.90
14170;DHT22;63889;50.596;8.690;2022-12-07T08:20:32;5.40;99.90
14170;DHT22;63889;50.596;8.690;2022-12-07T08:22:59;5.50;99.90
14170;DHT22;63889;50.596;8.690;2022-12-07T08:25:25;5.50;99.90
14170;DHT22;63889;50.596;8.690;2022-12-07T08:27:51;5.50;99.90
14170;DHT22;63889;50.596;8.690;2022-12-07T08:30:17;5.40;99.90
14170;DHT22;63889;50.596;8.690;2022-12-07T08:32:44;5.40;99.90
14170;DHT22;63889;50.596;8.690;2022-12-07T08:35:10;5.40;99.90
14170;DHT22;63889;50.596;8.690;2022-12-07T08:37:35;5.30;99.90
14170;DHT22;63889;50.596;8.690;2022-12-07T08:40:01;5.30;99.90
14170;DHT22;63889;50.596;8.690;2022-12-07T08:42:27;5.40;99.90
14170;DHT22;63889;50.596;8.690;2022-12-07T08:44:56;5.30;99.90
14170;DHT22;63889;50.596;8.690;2022-12-07T08:47:23;5.40;99.90
14170;DHT22;63889;50.596;8.690;2022-12-07T08:49:49;5.40;99.90
14170;DHT22;63889;50.596;8.690;2022-12-07T08:52:17;5.40;99.90
14170;DHT22;63889;50.596;8.690;2022-12-07T08:54:43;5.50;99.90
14170;DHT22;63889;50.596;8.690;2022-12-07T08:57:10;5.50;99.90
14170;DHT22;63889;50.596;8.690;2022-12-07T08:59:37;5.50;99.90
14170;DHT22;63889;50.596;8.690;2022-12-07T09:02:04;5.50;99.90
14170;DHT22;63889;50.596;8.690;2022-12-07T09:04:29;5.60;99.90
14170;DHT22;63889;50.596;8.690;2022-12-07T09:06:55;5.70;99.90
14170;DHT22;63889;50.596;8.690;2022-12-07T09:09:21;5.60;99.90
14170;DHT22;63889;50.596;8.690;2022-12-07T09:11:47;5.60;99.90
14170;DHT22;63889;50.596;8.690;2022-12-07T09:14:13;5.60;99.90
14170;DHT22;63889;50.596;8.690;2022-12-07T09:16:38;5.80;99.90
14170;DHT22;63889;50.596;8.690;2022-12-07T09:19:04;5.80;99.90
14170;DHT22;63889;50.596;8.690;2022-12-07T09:21:30;5.90;99.90
14170;DHT22;63889;50.596;8.690;2022-12-07T09:23:56;5.90;99.90
14170;DHT22;63889;50.596;8.690;2022-12-07T09:26:21;5.90;99.90
14170;DHT22;63889;50.596;8.690;2022-12-07T09:28:47;5.90;99.90
14170;DHT22;63889;50.596;8.690;2022-12-07T09:31:13;5.90;99.90
14170;DHT22;63889;50.596;8.690;2022-12-07T09:33:38;5.90;99.90
14170;DHT22;63889;50.596;8.690;2022-12-07T09:36:04;6.00;99.90
14170;DHT22;63889;50.596;8.690;2022-12-07T09:38:30;6.10;99.90
14170;DHT22;63889;50.596;8.690;2022-12-07T09:40:58;6.00;99.90
14170;DHT22;63889;50.596;8.690;2022-12-07T09:43:29;6.00;99.90
14170;DHT22;63889;50.596;8.690;2022-12-07T09:45:55;6.00;99.90
14170;DHT22;63889;50.596;8.690;2022-12-07T09:48:22;6.00;99.90
14170;DHT22;63889;50.596;8.690;2022-12-07T09:50:52;6.10;99.90
14170;DHT22;63889;50.596;8.690;2022-12-07T09:53:26;6.20;99.90
14170;DHT22;63889;50.596;8.690;2022-12-07T09:55:53;6.20;99.90
14170;DHT22;63889;50.596;8.690;2022-12-07T09:58:23;6.20;99.90
14170;DHT22;63889;50.596;8.690;2022-12-07T10:01:01;6.30;99.90
14170;DHT22;63889;50.596;8.690;2022-12-07T10:03:30;6.20;99.90
14170;DHT22;63889;50.596;8.690;2022-12-07T10:05:56;6.20;99.90
14170;DHT22;63889;50.596;8.690;2022-12-07T10:08:22;6.30;99.90
14170;DHT22;63889;50.596;8.690;2022-12-07T10:10:52;6.20;99.90
14170;DHT22;63889;50.596;8.690;2022-12-07T10:13:21;6.20;99.90
14170;DHT22;63889;50.596;8.690;2022-12-07T10:15:55;6.20;99.90
14170;DHT22;63889;50.596;8.690;2022-12-07T10:20:47;6.30;99.90
14170;DHT22;63889;50.596;8.690;2022-12-07T10:23:17;6.20;99.90
14170;DHT22;63889;50.596;8.690;2022-12-07T10:25:44;6.20;99.90
14170;DHT22;63889;50.596;8.690;2022-12-07T10:28:16;6.30;99.90
14170;DHT22;63889;50.596;8.690;2022-12-07T10:30:55;6.40;99.90
14170;DHT22;63889;50.596;8.690;2022-12-07T10:36:24;6.60;99.90
14170;DHT22;63889;50.596;8.690;2022-12-07T10:41:54;7.00;99.90
14170;DHT22;63889;50.596;8.690;2022-12-07T10:44:26;7.30;99.90
14170;DHT22;63889;50.596;8.690;2022-12-07T10:47:00;7.50;99.90
14170;DHT22;63889;50.596;8.690;2022-12-07T10:49:31;7.70;99.90
14170;DHT22;63889;50.596;8.690;2022-12-07T10:55:15;7.80;99.90
14170;DHT22;63889;50.596;8.690;2022-12-07T11:05:30;7.90;99.90
14170;DHT22;63889;50.596;8.690;2022-12-07T11:11:16;7.80;99.90
14170;DHT22;63889;50.596;8.690;2022-12-07T11:14:14;7.60;99.90
14170;DHT22;63889;50.596;8.690;2022-12-07T11:19:27;7.60;99.90
14170;DHT22;63889;50.596;8.690;2022-12-07T11:22:01;7.60;99.90
14170;DHT22;63889;50.596;8.690;2022-12-07T11:39:03;7.40;99.90
14170;DHT22;63889;50.596;8.690;2022-12-07T11:41:34;7.30;99.90
14170;DHT22;63889;50.596;8.690;2022-12-07T11:44:06;7.30;99.90
14170;DHT22;63889;50.596;8.690;2022-12-07T11:46:48;7.30;99.90
14170;DHT22;63889;50.596;8.690;2022-12-07T11:49:42;7.10;99.90
14170;DHT22;63889;50.596;8.690;2022-12-07T11:55:12;7.40;99.90
14170;DHT22;63889;50.596;8.690;2022-12-07T11:57:43;7.70;99.90
14170;DHT22;63889;50.596;8.690;2022-12-07T12:00:17;7.70;99.90
14170;DHT22;63889;50.596;8.690;2022-12-07T12:02:49;7.70;99.90
14170;DHT22;63889;50.596;8.690;2022-12-07T12:05:24;7.60;99.90
14170;DHT22;63889;50.596;8.690;2022-12-07T12:10:38;7.60;99.90
14170;DHT22;63889;50.596;8.690;2022-12-07T12:13:38;7.70;99.90
14170;DHT22;63889;50.596;8.690;2022-12-07T12:19:17;7.40;99.90
14170;DHT22;63889;50.596;8.690;2022-12-07T12:21:46;7.40;99.90
14170;DHT22;63889;50.596;8.690;2022-12-07T12:24:17;7.50;99.90
14170;DHT22;63889;50.596;8.690;2022-12-07T12:27:03;7.40;99.90
14170;DHT22;63889;50.596;8.690;2022-12-07T12:29:39;7.60;99.90
14170;DHT22;63889;50.596;8.690;2022-12-07T12:32:43;7.40;99.90
14170;DHT22;63889;50.596;8.690;2022-12-07T12:35:35;7.40;99.90
14170;DHT22;63889;50.596;8.690;2022-12-07T12:40:45;7.20;99.90
14170;DHT22;63889;50.596;8.690;2022-12-07T12:54:23;7.70;99.90
14170;DHT22;63889;50.596;8.690;2022-12-07T13:02:31;7.40;99.90
14170;DHT22;63889;50.596;8.690;2022-12-07T13:18:00;7.50;99.90
14170;DHT22;63889;50.596;8.690;2022-12-07T13:23:10;7.40;99.90
14170;DHT22;63889;50.596;8.690;2022-12-07T13:25:44;7.20;99.90
14170;DHT22;63889;50.596;8.690;2022-12-07T13:28:16;7.20;99.90
14170;DHT22;63889;50.596;8.690;2022-12-07T13:30:47;7.30;99.90
14170;DHT22;63889;50.596;8.690;2022-12-07T13:33:13;7.20;99.90
14170;DHT22;63889;50.596;8.690;2022-12-07T13:35:40;7.10;99.90
14170;DHT22;63889;50.596;8.690;2022-12-07T13:38:32;7.10;99.90
14170;DHT22;63889;50.596;8.690;2022-12-07T13:41:16;7.10;99.90
14170;DHT22;63889;50.596;8.690;2022-12-07T13:43:48;7.00;99.90
14170;DHT22;63889;50.596;8.690;2022-12-07T13:46:14;6.90;99.90
14170;DHT22;63889;50.596;8.690;2022-12-07T13:48:49;7.10;99.90
14170;DHT22;63889;50.596;8.690;2022-12-07T13:51:26;7.20;99.90
14170;DHT22;63889;50.596;8.690;2022-12-07T13:54:00;7.10;99.90
14170;DHT22;63889;50.596;8.690;2022-12-07T13:56:31;7.00;99.90
14170;DHT22;63889;50.596;8.690;2022-12-07T13:58:58;7.00;99.90
14170;DHT22;63889;50.596;8.690;2022-12-07T14:01:24;7.10;99.90
14170;DHT22;63889;50.596;8.690;2022-12-07T14:03:50;7.20;99.90
14170;DHT22;63889;50.596;8.690;2022-12-07T14:06:25;7.20;99.90
14170;DHT22;63889;50.596;8.690;2022-12-07T14:09:06;7.30;99.90
14170;DHT22;63889;50.596;8.690;2022-12-07T14:11:32;7.10;99.90
14170;DHT22;63889;50.596;8.690;2022-12-07T14:14:00;7.10;99.90
14170;DHT22;63889;50.596;8.690;2022-12-07T14:16:34;7.00;99.90
14170;DHT22;63889;50.596;8.690;2022-12-07T14:19:03;6.90;99.90
14170;DHT22;63889;50.596;8.690;2022-12-07T14:21:32;7.00;99.90
14170;DHT22;63889;50.596;8.690;2022-12-07T14:24:17;6.90;99.90
14170;DHT22;63889;50.596;8.690;2022-12-07T14:26:49;6.90;99.90
14170;DHT22;63889;50.596;8.690;2022-12-07T14:31:54;6.80;99.90
14170;DHT22;63889;50.596;8.690;2022-12-07T14:34:20;6.80;99.90
14170;DHT22;63889;50.596;8.690;2022-12-07T14:36:46;6.80;99.90
14170;DHT22;63889;50.596;8.690;2022-12-07T14:39:11;6.70;99.90
14170;DHT22;63889;50.596;8.690;2022-12-07T14:41:37;6.70;99.90
14170;DHT22;63889;50.596;8.690;2022-12-07T14:44:32;6.70;99.90
14170;DHT22;63889;50.596;8.690;2022-12-07T14:46:57;6.70;99.90
14170;DHT22;63889;50.596;8.690;2022-12-07T14:49:23;6.70;99.90
14170;DHT22;63889;50.596;8.690;2022-12-07T14:51:48;6.70;99.90
14170;DHT22;63889;50.596;8.690;2022-12-07T14:54:19;6.80;99.90
14170;DHT22;63889;50.596;8.690;2022-12-07T14:56:45;6.70;99.90
14170;DHT22;63889;50.596;8.690;2022-12-07T14:59:14;6.70;99.90
14170;DHT22;63889;50.596;8.690;2022-12-07T15:01:40;6.70;99.90
14170;DHT22;63889;50.596;8.690;2022-12-07T15:04:05;6.90;99.90
14170;DHT22;63889;50.596;8.690;2022-12-07T15:06:32;6.90;99.90
14170;DHT22;63889;50.596;8.690;2022-12-07T15:08:58;6.90;99.90
14170;DHT22;63889;50.596;8.690;2022-12-07T15:11:23;6.90;99.90
14170;DHT22;63889;50.596;8.690;2022-12-07T15:13:49;6.90;99.90
14170;DHT22;63889;50.596;8.690;2022-12-07T15:16:33;6.80;99.90
14170;DHT22;63889;50.596;8.690;2022-12-07T15:18:59;6.80;99.90
14170;DHT22;63889;50.596;8.690;2022-12-07T15:21:25;6.70;99.90
14170;DHT22;63889;50.596;8.690;2022-12-07T15:23:50;6.80;99.90
14170;DHT22;63889;50.596;8.690;2022-12-07T15:26:16;6.80;99.90
14170;DHT22;63889;50.596;8.690;2022-12-07T15:28:42;6.70;99.90
14170;DHT22;63889;50.596;8.690;2022-12-07T15:31:15;6.60;99.90
14170;DHT22;63889;50.596;8.690;2022-12-07T15:33:42;6.50;99.90
14170;DHT22;63889;50.596;8.690;2022-12-07T15:36:08;6.50;99.90
14170;DHT22;63889;50.596;8.690;2022-12-07T15:38:37;6.50;99.90
14170;DHT22;63889;50.596;8.690;2022-12-07T15:41:03;6.60;99.90
14170;DHT22;63889;50.596;8.690;2022-12-07T15:43:29;6.50;99.90
14170;DHT22;63889;50.596;8.690;2022-12-07T15:46:13;6.60;99.90
14170;DHT22;63889;50.596;8.690;2022-12-07T15:48:39;6.50;99.90
14170;DHT22;63889;50.596;8.690;2022-12-07T15:51:07;6.50;99.90
14170;DHT22;63889;50.596;8.690;2022-12-07T15:53:33;6.40;99.90
14170;DHT22;63889;50.596;8.690;2022-12-07T15:55:59;6.40;99.90
14170;DHT22;63889;50.596;8.690;2022-12-07T15:58:25;6.40;99.90
14170;DHT22;63889;50.596;8.690;2022-12-07T16:00:51;6.30;99.90
14170;DHT22;63889;50.596;8.690;2022-12-07T16:03:16;6.30;99.90
14170;DHT22;63889;50.596;8.690;2022-12-07T16:05:47;6.20;99.90
14170;DHT22;63889;50.596;8.690;2022-12-07T16:08:13;6.20;99.90
14170;DHT22;63889;50.596;8.690;2022-12-07T16:10:38;6.20;99.90
14170;DHT22;63889;50.596;8.690;2022-12-07T16:13:07;6.20;99.90
14170;DHT22;63889;50.596;8.690;2022-12-07T16:15:32;6.20;99.90
14170;DHT22;63889;50.596;8.690;2022-12-07T16:17:58;6.10;99.90
14170;DHT22;63889;50.596;8.690;2022-12-07T16:20:23;6.10;99.90
14170;DHT22;63889;50.596;8.690;2022-12-07T16:22:51;6.10;99.90
14170;DHT22;63889;50.596;8.690;2022-12-07T16:25:18;6.10;99.90
14170;DHT22;63889;50.596;8.690;2022-12-07T16:27:43;6.10;99.90
14170;DHT22;63889;50.596;8.690;2022-12-07T16:30:11;6.10;99.90
14170;DHT22;63889;50.596;8.690;2022-12-07T16:32:37;6.20;99.90
14170;DHT22;63889;50.596;8.690;2022-12-07T16:35:03;6.10;99.90
14170;DHT22;63889;50.596;8.690;2022-12-07T16:37:28;6.20;99.90
14170;DHT22;63889;50.596;8.690;2022-12-07T16:39:54;6.20;99.90
14170;DHT22;63889;50.596;8.690;2022-12-07T16:42:19;6.20;99.90
14170;DHT22;63889;50.596;8.690;2022-12-07T16:44:45;6.10;99.90
14170;DHT22;63889;50.596;8.690;2022-12-07T16:47:10;6.20;99.90
14170;DHT22;63889;50.596;8.690;2022-12-07T16:49:36;6.10;99.90
14170;DHT22;63889;50.596;8.690;2022-12-07T16:52:01;6.10;99.90
14170;DHT22;63889;50.596;8.690;2022-12-07T16:54:27;6.10;99.90
14170;DHT22;63889;50.596;8.690;2022-12-07T16:56:56;6.10;99.90
14170;DHT22;63889;50.596;8.690;2022-12-07T16:59:21;6.00;99.90
14170;DHT22;63889;50.596;8.690;2022-12-07T17:01:47;6.00;99.90
14170;DHT22;63889;50.596;8.690;2022-12-07T17:04:12;6.00;99.90
14170;DHT22;63889;50.596;8.690;2022-12-07T17:06:38;6.00;99.90
14170;DHT22;63889;50.596;8.690;2022-12-07T17:09:04;5.90;99.90
14170;DHT22;63889;50.596;8.690;2022-12-07T17:11:34;5.90;99.90
14170;DHT22;63889;50.596;8.690;2022-12-07T17:13:59;5.90;99.90
14170;DHT22;63889;50.596;8.690;2022-12-07T17:16:43;6.00;99.90
14170;DHT22;63889;50.596;8.690;2022-12-07T17:19:11;6.00;99.90
14170;DHT22;63889;50.596;8.690;2022-12-07T17:21:37;6.00;99.90
14170;DHT22;63889;50.596;8.690;2022-12-07T17:24:05;6.00;99.90
14170;DHT22;63889;50.596;8.690;2022-12-07T17:26:31;6.00;99.90
14170;DHT22;63889;50.596;8.690;2022-12-07T17:28:58;6.00;99.90
14170;DHT22;63889;50.596;8.690;2022-12-07T17:31:23;6.00;99.90
14170;DHT22;63889;50.596;8.690;2022-12-07T17:33:49;5.90;99.90
14170;DHT22;63889;50.596;8.690;2022-12-07T17:36:17;5.90;99.90
14170;DHT22;63889;50.596;8.690;2022-12-07T17:38:44;5.90;99.90
14170;DHT22;63889;50.596;8.690;2022-12-07T17:41:27;6.00;99.90
14170;DHT22;63889;50.596;8.690;2022-12-07T17:44:16;6.00;99.90
14170;DHT22;63889;50.596;8.690;2022-12-07T17:46:43;6.00;99.90
14170;DHT22;63889;50.596;8.690;2022-12-07T17:49:09;6.00;99.90
14170;DHT22;63889;50.596;8.690;2022-12-07T17:51:34;5.90;99.90